Time;durP1;ratioP1;P1;durP2;ratioP2;P2;SDS_P1;SDS_P2;PMS_P1;PMS_P2;Temp;Humidity;BMP_temperature;BMP_pressure;BME280_temperature;BME280_humidity;BME280_pressure;Samples;Min_cycle;Max_cycle;Signal;HPM_P1;HPM_P2
2023/07/16 00:02:09;;;;;;;5.40;2.17;;;;;;;;;;6231071;28;20272;-65
2023/07/16 00:05:09;;;;;;;3.50;2.90;;;;;;;;;;6230831;28;20759;-65
2023/07/16 00:08:10;;;;;;;3.15;2.30;;;;;;;;;;6231526;28;20096;-64
2023/07/16 00:11:10;;;;;;;2.33;2.10;;;;;;;;;;6229447;28;20036;-64
2023/07/16 00:14:12;;;;;;;3.47;2.23;;;;;;;;;;6235320;28;20272;-64
2023/07/16 00:17:12;;;;;;;4.10;2.67;;;;;;;;;;6234972;28;20029;-66
2023/07/16 00:20:12;;;;;;;3.47;2.57;;;;;;;;;;6232162;28;20028;-65
2023/07/16 00:23:12;;;;;;;2.90;2.40;;;;;;;;;;6232533;28;20268;-63
2023/07/16 00:26:13;;;;;;;4.68;2.58;;;;;;;;;;6230277;28;20280;-67
2023/07/16 00:29:13;;;;;;;4.05;2.40;;;;;;;;;;6222265;28;20112;-64
2023/07/16 00:32:14;;;;;;;2.87;2.30;;;;;;;;;;6230489;28;20021;-62
2023/07/16 00:35:14;;;;;;;3.10;2.27;;;;;;;;;;6233676;28;20276;-63
2023/07/16 00:38:14;;;;;;;3.25;2.45;;;;;;;;;;6237227;28;20280;-64
2023/07/16 00:41:14;;;;;;;3.17;2.10;;;;;;;;;;6237137;28;20025;-65
2023/07/16 00:44:14;;;;;;;3.70;2.20;;;;;;;;;;6233824;28;20287;-65
2023/07/16 00:47:15;;;;;;;3.10;2.30;;;;;;;;;;6236151;28;20264;-63
2023/07/16 00:50:15;;;;;;;3.77;2.17;;;;;;;;;;6236605;28;20284;-62
2023/07/16 00:53:16;;;;;;;2.63;2.08;;;;;;;;;;6237362;28;20831;-66
2023/07/16 00:56:20;;;;;;;3.00;2.08;;;;;;;;;;6238140;28;20029;-63
2023/07/16 00:59:20;;;;;;;4.68;2.70;;;;;;;;;;6236051;28;20035;-64
2023/07/16 01:02:21;;;;;;;2.38;2.17;;;;;;;;;;6236013;28;20045;-65
2023/07/16 01:05:22;;;;;;;3.97;2.28;;;;;;;;;;6237373;28;20010;-65
2023/07/16 01:08:34;;;;;;;3.80;2.22;;;;;;;;;;6226167;28;20151;-67
2023/07/16 01:11:35;;;;;;;2.58;1.92;;;;;;;;;;6236607;28;20076;-62
2023/07/16 01:14:35;;;;;;;1.75;1.65;;;;;;;;;;6235644;28;20394;-63
2023/07/16 01:17:36;;;;;;;2.45;1.77;;;;;;;;;;6236403;28;20151;-65
2023/07/16 01:20:36;;;;;;;2.37;2.17;;;;;;;;;;6234328;28;20109;-63
2023/07/16 01:23:51;;;;;;;3.65;2.15;;;;;;;;;;6234418;28;20803;-64
2023/07/16 01:27:14;;;;;;;3.35;1.95;;;;;;;;;;6251652;28;20177;-64
2023/07/16 01:30:15;;;;;;;3.50;2.10;;;;;;;;;;6234568;28;20067;-63
2023/07/16 01:33:16;;;;;;;1.85;1.67;;;;;;;;;;6237397;28;20040;-65
2023/07/16 01:36:18;;;;;;;2.03;1.92;;;;;;;;;;6237714;28;20131;-65
2023/07/16 01:39:18;;;;;;;2.83;2.08;;;;;;;;;;5888708;28;10000010;-64
2023/07/16 01:42:18;;;;;;;2.90;2.28;;;;;;;;;;6247285;28;20478;-64
2023/07/16 01:45:19;;;;;;;6.77;2.43;;;;;;;;;;6235482;28;20064;-66
2023/07/16 01:48:31;;;;;;;2.45;2.25;;;;;;;;;;6233444;28;20264;-66
2023/07/16 01:51:31;;;;;;;2.80;2.17;;;;;;;;;;6234474;28;20379;-65
2023/07/16 01:54:32;;;;;;;2.33;2.13;;;;;;;;;;6236100;28;20017;-65
2023/07/16 01:57:32;;;;;;;2.60;2.05;;;;;;;;;;6235179;28;20029;-64
2023/07/16 02:00:33;;;;;;;6.28;2.42;;;;;;;;;;6236022;28;20453;-63
2023/07/16 02:03:33;;;;;;;2.55;2.22;;;;;;;;;;6235964;28;20025;-64
2023/07/16 02:06:33;;;;;;;2.13;1.93;;;;;;;;;;6235602;28;20392;-64
2023/07/16 02:09:35;;;;;;;3.33;1.98;;;;;;;;;;6236228;28;20756;-64
2023/07/16 02:12:35;;;;;;;2.00;1.77;;;;;;;;;;6235625;28;20029;-63
2023/07/16 02:15:35;;;;;;;2.57;2.10;;;;;;;;;;6234003;28;20064;-63
2023/07/16 02:18:35;;;;;;;3.03;2.40;;;;;;;;;;6234184;28;20410;-65
2023/07/16 02:21:35;;;;;;;3.03;2.47;;;;;;;;;;6233648;28;20272;-65
2023/07/16 02:24:36;;;;;;;3.58;2.20;;;;;;;;;;6233171;28;20025;-63
2023/07/16 02:27:36;;;;;;;3.10;2.10;;;;;;;;;;6235785;28;20106;-65
2023/07/16 02:30:36;;;;;;;3.78;2.40;;;;;;;;;;6232876;28;20659;-65
2023/07/16 02:33:36;;;;;;;3.70;2.33;;;;;;;;;;6236042;28;20446;-63
2023/07/16 02:36:37;;;;;;;2.47;1.95;;;;;;;;;;6235026;28;20337;-63
2023/07/16 02:39:38;;;;;;;2.70;2.13;;;;;;;;;;6233355;28;20100;-62
2023/07/16 02:42:38;;;;;;;2.40;2.10;;;;;;;;;;6234245;28;20021;-65
2023/07/16 02:45:39;;;;;;;2.47;2.20;;;;;;;;;;6234169;28;20083;-65
2023/07/16 02:48:39;;;;;;;3.90;2.25;;;;;;;;;;6233062;28;20316;-63
2023/07/16 02:51:39;;;;;;;3.33;2.53;;;;;;;;;;6248323;28;20053;-64
2023/07/16 02:54:39;;;;;;;3.70;2.53;;;;;;;;;;6245846;28;20776;-63
2023/07/16 02:57:40;;;;;;;2.28;2.00;;;;;;;;;;6242171;28;20048;-65
2023/07/16 03:00:40;;;;;;;3.30;2.23;;;;;;;;;;6242418;28;20091;-63
2023/07/16 03:03:40;;;;;;;2.60;2.03;;;;;;;;;;6237796;28;20268;-63
2023/07/16 03:06:40;;;;;;;3.63;2.35;;;;;;;;;;6237791;28;20017;-63
2023/07/16 03:09:41;;;;;;;2.80;2.42;;;;;;;;;;6236048;28;20033;-63
2023/07/16 03:12:41;;;;;;;3.47;2.13;;;;;;;;;;6236015;28;20085;-63
2023/07/16 03:15:41;;;;;;;2.72;2.20;;;;;;;;;;6236503;28;20025;-62
2023/07/16 03:18:41;;;;;;;3.80;2.37;;;;;;;;;;6235170;28;20025;-62
2023/07/16 03:21:42;;;;;;;2.22;1.92;;;;;;;;;;6233281;28;20025;-63
2023/07/16 03:24:42;;;;;;;3.15;2.50;;;;;;;;;;6234023;28;20119;-63
2023/07/16 03:27:42;;;;;;;3.00;2.17;;;;;;;;;;6236511;28;20021;-62
2023/07/16 03:30:49;;;;;;;3.00;2.37;;;;;;;;;;6236980;28;20708;-65
2023/07/16 03:33:49;;;;;;;4.32;2.60;;;;;;;;;;6235718;28;20039;-64
2023/07/16 03:36:50;;;;;;;3.00;2.40;;;;;;;;;;6233713;28;20371;-64
2023/07/16 03:39:50;;;;;;;2.53;2.33;;;;;;;;;;6234877;28;20614;-66
2023/07/16 03:42:50;;;;;;;3.75;2.58;;;;;;;;;;6232285;28;20339;-65
2023/07/16 03:45:51;;;;;;;2.95;2.65;;;;;;;;;;6238786;28;20476;-64
2023/07/16 03:48:53;;;;;;;4.30;2.57;;;;;;;;;;6242004;28;20108;-65
2023/07/16 03:51:53;;;;;;;2.63;2.42;;;;;;;;;;6240314;28;20026;-64
2023/07/16 03:54:54;;;;;;;2.87;2.40;;;;;;;;;;6242291;28;20065;-65
2023/07/16 03:57:54;;;;;;;3.13;2.30;;;;;;;;;;6236429;28;20413;-63
2023/07/16 04:00:55;;;;;;;3.40;2.17;;;;;;;;;;6235326;28;20010;-65
2023/07/16 04:03:55;;;;;;;3.40;2.58;;;;;;;;;;6233955;28;20032;-65
2023/07/16 04:06:56;;;;;;;2.47;2.17;;;;;;;;;;6237899;28;20032;-64
2023/07/16 04:09:56;;;;;;;3.40;2.60;;;;;;;;;;6229218;28;20825;-64
2023/07/16 04:12:56;;;;;;;3.83;2.60;;;;;;;;;;6238466;28;20128;-63
2023/07/16 04:15:57;;;;;;;3.00;2.43;;;;;;;;;;6246745;28;20268;-63
2023/07/16 04:18:57;;;;;;;3.47;2.67;;;;;;;;;;6249027;28;20275;-63
2023/07/16 04:21:58;;;;;;;3.67;2.77;;;;;;;;;;6248407;28;20462;-64
2023/07/16 04:24:58;;;;;;;3.22;2.58;;;;;;;;;;6240495;28;20299;-65
2023/07/16 04:27:58;;;;;;;3.00;2.67;;;;;;;;;;6234360;28;20437;-63
2023/07/16 04:30:59;;;;;;;2.77;2.57;;;;;;;;;;6240330;28;20022;-62
2023/07/16 04:33:59;;;;;;;3.30;2.60;;;;;;;;;;6238612;28;20272;-64
2023/07/16 04:36:59;;;;;;;2.50;2.30;;;;;;;;;;6247110;28;20048;-63
2023/07/16 04:39:59;;;;;;;3.33;3.03;;;;;;;;;;6243936;28;20294;-64
2023/07/16 04:42:59;;;;;;;2.70;2.50;;;;;;;;;;6242489;28;20306;-64
2023/07/16 04:46:00;;;;;;;2.83;2.63;;;;;;;;;;6242741;28;20709;-64
2023/07/16 04:49:01;;;;;;;4.07;2.90;;;;;;;;;;6238258;28;20030;-65
2023/07/16 04:52:01;;;;;;;3.08;2.78;;;;;;;;;;6238737;28;20333;-64
2023/07/16 04:55:01;;;;;;;2.97;2.63;;;;;;;;;;6238770;28;20079;-65
2023/07/16 04:58:01;;;;;;;2.92;2.42;;;;;;;;;;6242607;28;20029;-64
2023/07/16 05:01:02;;;;;;;3.27;2.97;;;;;;;;;;6243766;28;20035;-64
2023/07/16 05:04:02;;;;;;;3.17;2.70;;;;;;;;;;5886741;28;10000151;-65
2023/07/16 05:07:02;;;;;;;3.13;2.57;;;;;;;;;;6239182;28;20100;-65
2023/07/16 05:10:03;;;;;;;3.70;3.13;;;;;;;;;;6223669;28;20399;-63
2023/07/16 05:13:03;;;;;;;4.70;3.80;;;;;;;;;;6223336;28;20026;-65
2023/07/16 05:16:04;;;;;;;4.93;3.70;;;;;;;;;;6233394;28;20029;-63
2023/07/16 05:19:04;;;;;;;3.92;3.63;;;;;;;;;;6225293;28;20222;-63
2023/07/16 05:22:04;;;;;;;5.57;3.47;;;;;;;;;;6226327;28;20048;-65
2023/07/16 05:25:05;;;;;;;4.32;3.92;;;;;;;;;;6225635;28;20029;-62
2023/07/16 05:28:05;;;;;;;4.55;3.42;;;;;;;;;;6229211;28;20499;-68
2023/07/16 05:31:05;;;;;;;4.23;3.53;;;;;;;;;;6225388;28;20028;-65
2023/07/16 05:34:05;;;;;;;3.87;3.47;;;;;;;;;;6225775;28;20821;-66
2023/07/16 05:37:06;;;;;;;4.10;3.70;;;;;;;;;;6223761;28;22061;-64
2023/07/16 05:40:08;;;;;;;3.57;3.17;;;;;;;;;;6229329;28;20707;-65
2023/07/16 05:43:08;;;;;;;5.57;3.33;;;;;;;;;;6233163;28;20292;-64
2023/07/16 05:46:09;;;;;;;4.63;3.67;;;;;;;;;;6226397;28;20101;-66
2023/07/16 05:49:09;;;;;;;7.03;3.60;;;;;;;;;;6225700;28;21726;-65
2023/07/16 05:52:09;;;;;;;3.83;3.43;;;;;;;;;;6231275;28;21337;-64
2023/07/16 05:55:09;;;;;;;3.65;3.05;;;;;;;;;;6232851;28;20959;-65
2023/07/16 05:58:09;;;;;;;4.47;2.73;;;;;;;;;;6233489;28;20029;-65
2023/07/16 06:01:10;;;;;;;3.97;3.00;;;;;;;;;;6223842;28;20371;-64
2023/07/16 06:04:10;;;;;;;4.93;2.70;;;;;;;;;;6225278;28;20152;-70
2023/07/16 06:07:10;;;;;;;4.07;3.00;;;;;;;;;;5886980;28;10000517;-70
2023/07/16 06:10:10;;;;;;;3.77;3.03;;;;;;;;;;6224978;28;20113;-70
2023/07/16 06:13:11;;;;;;;3.27;2.70;;;;;;;;;;6223909;28;20365;-69
2023/07/16 06:16:11;;;;;;;3.47;2.75;;;;;;;;;;6224573;28;20367;-70
2023/07/16 06:19:11;;;;;;;4.40;3.60;;;;;;;;;;6228451;28;20029;-69
2023/07/16 06:22:11;;;;;;;3.47;3.17;;;;;;;;;;6219893;28;20321;-69
2023/07/16 06:25:12;;;;;;;4.40;3.53;;;;;;;;;;6222162;28;20287;-71
2023/07/16 06:28:13;;;;;;;4.03;3.63;;;;;;;;;;6222866;28;20025;-67
2023/07/16 06:31:13;;;;;;;4.00;3.60;;;;;;;;;;6225382;28;20176;-67
2023/07/16 06:34:13;;;;;;;3.77;3.27;;;;;;;;;;6226909;28;20342;-69
2023/07/16 06:37:13;;;;;;;5.27;3.33;;;;;;;;;;6230188;28;20296;-67
2023/07/16 06:40:14;;;;;;;4.50;4.10;;;;;;;;;;6225214;28;20738;-69
2023/07/16 06:43:14;;;;;;;4.80;4.32;;;;;;;;;;6221765;28;20302;-67
2023/07/16 06:46:14;;;;;;;4.65;4.10;;;;;;;;;;6226144;28;20572;-68
2023/07/16 06:49:15;;;;;;;4.30;3.90;;;;;;;;;;6226492;28;20565;-69
2023/07/16 06:52:22;;;;;;;4.03;3.70;;;;;;;;;;6235144;28;20029;-72
2023/07/16 06:55:22;;;;;;;3.72;3.42;;;;;;;;;;6238066;28;20673;-69
2023/07/16 06:58:30;;;;;;;4.93;3.60;;;;;;;;;;6223256;28;20071;-68
2023/07/16 07:01:30;;;;;;;3.33;3.03;;;;;;;;;;6223019;28;20284;-70
2023/07/16 07:04:31;;;;;;;3.72;2.90;;;;;;;;;;6223545;28;20040;-69
2023/07/16 07:07:31;;;;;;;3.83;3.03;;;;;;;;;;6229891;28;20232;-68
2023/07/16 07:10:32;;;;;;;3.27;2.97;;;;;;;;;;6224289;28;20057;-72
2023/07/16 07:13:32;;;;;;;2.85;2.55;;;;;;;;;;6221909;28;20030;-68
2023/07/16 07:16:33;;;;;;;2.60;2.40;;;;;;;;;;6223694;28;20516;-67
2023/07/16 07:19:33;;;;;;;2.73;2.53;;;;;;;;;;6227281;28;20029;-69
2023/07/16 07:22:33;;;;;;;2.50;2.28;;;;;;;;;;6235905;28;20286;-70
2023/07/16 07:25:33;;;;;;;3.00;2.70;;;;;;;;;;5889240;28;10000222;-70
2023/07/16 07:28:34;;;;;;;4.27;2.33;;;;;;;;;;6238416;28;20041;-70
2023/07/16 07:31:34;;;;;;;5.17;2.50;;;;;;;;;;6247938;28;20279;-67
2023/07/16 07:34:34;;;;;;;4.45;2.42;;;;;;;;;;6240833;28;20021;-68
2023/07/16 07:37:34;;;;;;;3.00;2.30;;;;;;;;;;6246200;28;20052;-69
2023/07/16 07:40:35;;;;;;;2.57;2.37;;;;;;;;;;6252847;28;20017;-68
2023/07/16 07:43:35;;;;;;;2.47;2.23;;;;;;;;;;6230541;28;20120;-70
2023/07/16 07:46:35;;;;;;;4.93;2.30;;;;;;;;;;6228490;28;20761;-69
2023/07/16 07:49:35;;;;;;;2.23;1.93;;;;;;;;;;6241302;28;20351;-69
2023/07/16 07:52:36;;;;;;;1.83;1.73;;;;;;;;;;6234057;28;20083;-68
2023/07/16 07:55:36;;;;;;;1.80;1.70;;;;;;;;;;6240545;28;20246;-69
2023/07/16 07:58:36;;;;;;;2.42;1.85;;;;;;;;;;6231965;28;20319;-69
2023/07/16 08:01:37;;;;;;;2.72;2.05;;;;;;;;;;6230006;28;20029;-68
2023/07/16 08:04:37;;;;;;;2.63;2.43;;;;;;;;;;6237342;28;20060;-69
2023/07/16 08:07:37;;;;;;;3.13;2.67;;;;;;;;;;6234565;28;20272;-71
2023/07/16 08:10:37;;;;;;;2.70;1.90;;;;;;;;;;6234734;28;20053;-69
2023/07/16 08:13:37;;;;;;;4.17;2.30;;;;;;;;;;6230212;28;20116;-69
2023/07/16 08:16:38;;;;;;;2.23;2.03;;;;;;;;;;6235181;28;20030;-69
2023/07/16 08:19:38;;;;;;;3.13;2.27;;;;;;;;;;6231918;28;20160;-70
2023/07/16 08:22:38;;;;;;;2.92;1.90;;;;;;;;;;6247668;28;20549;-72
2023/07/16 08:25:39;;;;;;;3.55;2.50;;;;;;;;;;6232214;28;20840;-72
2023/07/16 08:28:39;;;;;;;2.60;2.20;;;;;;;;;;6225525;28;20443;-69
2023/07/16 08:31:40;;;;;;;3.03;1.87;;;;;;;;;;6228048;28;20504;-69
2023/07/16 08:34:40;;;;;;;2.30;2.10;;;;;;;;;;6232508;28;20032;-70
2023/07/16 08:37:40;;;;;;;2.07;1.83;;;;;;;;;;6250768;28;20494;-68
2023/07/16 08:40:40;;;;;;;1.80;1.70;;;;;;;;;;6233020;28;20287;-69
2023/07/16 08:43:41;;;;;;;2.43;1.77;;;;;;;;;;6226087;28;20105;-68
2023/07/16 08:46:41;;;;;;;1.90;1.70;;;;;;;;;;6240720;28;20021;-70
2023/07/16 08:49:44;;;;;;;3.20;1.85;;;;;;;;;;6229481;28;20246;-72
2023/07/16 08:52:45;;;;;;;1.67;1.58;;;;;;;;;;6224787;28;20735;-70
2023/07/16 08:55:45;;;;;;;1.80;1.60;;;;;;;;;;6227334;28;20084;-69
2023/07/16 08:58:45;;;;;;;1.58;1.48;;;;;;;;;;6238301;28;20029;-70
2023/07/16 09:01:49;;;;;;;1.40;1.30;;;;;;;;;;6242426;28;20021;-71
2023/07/16 09:04:51;;;;;;;2.05;1.80;;;;;;;;;;6240076;28;20104;-70
2023/07/16 09:07:51;;;;;;;2.28;2.00;;;;;;;;;;6232751;28;20079;-71
2023/07/16 09:10:55;;;;;;;1.57;1.47;;;;;;;;;;6232194;28;20025;-69
2023/07/16 09:13:55;;;;;;;2.83;1.80;;;;;;;;;;6223706;28;20664;-70
2023/07/16 09:16:55;;;;;;;1.83;1.73;;;;;;;;;;6222861;28;20040;-69
2023/07/16 09:19:56;;;;;;;2.00;1.80;;;;;;;;;;6226686;28;20025;-69
2023/07/16 09:22:59;;;;;;;3.42;1.73;;;;;;;;;;6225480;28;20025;-70
2023/07/16 09:25:59;;;;;;;2.08;1.70;;;;;;;;;;6221411;28;20033;-72
2023/07/16 09:29:00;;;;;;;2.90;1.67;;;;;;;;;;6230059;28;20124;-70
2023/07/16 09:32:02;;;;;;;1.97;1.60;;;;;;;;;;6228120;28;20498;-69
2023/07/16 09:35:12;;;;;;;2.80;2.42;;;;;;;;;;6219272;28;20083;-69
2023/07/16 09:38:12;;;;;;;2.50;2.30;;;;;;;;;;5533860;28;10000759;-71
2023/07/16 09:41:12;;;;;;;1.93;1.73;;;;;;;;;;6223971;28;20021;-70
2023/07/16 09:44:13;;;;;;;1.90;1.70;;;;;;;;;;6229195;28;20279;-69
2023/07/16 09:47:13;;;;;;;2.72;1.42;;;;;;;;;;6228150;28;20419;-69
2023/07/16 09:50:14;;;;;;;1.30;1.20;;;;;;;;;;6221043;28;20017;-69
2023/07/16 09:53:15;;;;;;;2.50;1.80;;;;;;;;;;6226365;28;20021;-67
2023/07/16 09:56:16;;;;;;;1.83;1.73;;;;;;;;;;6227103;28;20029;-71
2023/07/16 09:59:17;;;;;;;2.08;1.60;;;;;;;;;;6228303;28;20394;-70
2023/07/16 10:02:19;;;;;;;2.10;1.80;;;;;;;;;;6229288;28;20066;-69
2023/07/16 10:05:27;;;;;;;2.00;1.67;;;;;;;;;;6229852;28;20025;-70
2023/07/16 10:08:34;;;;;;;2.75;1.90;;;;;;;;;;6235589;28;20053;-70
2023/07/16 10:11:36;;;;;;;2.45;2.25;;;;;;;;;;6229092;28;20021;-68
2023/07/16 10:14:40;;;;;;;2.53;1.90;;;;;;;;;;6224376;28;20371;-70
2023/07/16 10:17:49;;;;;;;1.80;1.70;;;;;;;;;;6229870;28;20107;-69
2023/07/16 10:20:51;;;;;;;2.63;2.20;;;;;;;;;;6226859;28;20128;-70
2023/07/16 10:24:01;;;;;;;2.35;2.15;;;;;;;;;;6225519;28;20029;-69
2023/07/16 10:27:02;;;;;;;1.80;1.70;;;;;;;;;;6228246;28;20025;-69
2023/07/16 10:30:03;;;;;;;2.10;1.83;;;;;;;;;;6228330;28;20021;-69
2023/07/16 10:33:10;;;;;;;2.00;1.80;;;;;;;;;;6234384;28;20032;-70
2023/07/16 10:36:17;;;;;;;2.17;1.98;;;;;;;;;;6226330;28;20445;-70
2023/07/16 10:39:18;;;;;;;3.17;1.77;;;;;;;;;;6227190;28;20343;-69
2023/07/16 10:42:19;;;;;;;1.80;1.70;;;;;;;;;;6224689;28;20087;-69
2023/07/16 10:45:19;;;;;;;3.05;1.70;;;;;;;;;;6228404;28;20310;-70
2023/07/16 10:48:24;;;;;;;1.60;1.50;;;;;;;;;;6222596;28;20140;-69
2023/07/16 10:51:25;;;;;;;2.08;1.45;;;;;;;;;;6226118;28;20120;-69
2023/07/16 10:54:25;;;;;;;2.58;1.65;;;;;;;;;;6228614;28;20088;-70
2023/07/16 10:57:26;;;;;;;1.92;1.80;;;;;;;;;;6228534;28;20063;-70
2023/07/16 11:00:26;;;;;;;1.95;1.73;;;;;;;;;;6233757;28;20026;-70
2023/07/16 11:03:27;;;;;;;1.90;1.80;;;;;;;;;;6229500;28;20030;-71
2023/07/16 11:06:27;;;;;;;2.38;1.77;;;;;;;;;;6228951;28;20029;-70
2023/07/16 11:09:28;;;;;;;3.17;1.77;;;;;;;;;;6232499;28;20029;-72
2023/07/16 11:12:28;;;;;;;2.13;1.97;;;;;;;;;;6228848;28;20505;-69
2023/07/16 11:15:35;;;;;;;1.67;1.45;;;;;;;;;;6228669;28;20041;-70
2023/07/16 11:18:35;;;;;;;1.65;1.55;;;;;;;;;;6239710;28;20112;-70
2023/07/16 11:21:36;;;;;;;2.70;1.70;;;;;;;;;;6236997;28;20200;-70
2023/07/16 11:24:42;;;;;;;1.90;1.80;;;;;;;;;;6232740;28;20062;-71
2023/07/16 11:27:43;;;;;;;2.00;1.80;;;;;;;;;;6240257;28;20269;-71
2023/07/16 11:30:43;;;;;;;2.23;1.90;;;;;;;;;;6233105;28;20053;-70
2023/07/16 11:33:46;;;;;;;1.73;1.63;;;;;;;;;;6237961;28;20283;-70
2023/07/16 11:36:47;;;;;;;2.17;2.00;;;;;;;;;;6238389;28;20025;-71
2023/07/16 11:39:48;;;;;;;1.80;1.70;;;;;;;;;;5902329;28;9999686;-72
2023/07/16 11:42:48;;;;;;;1.85;1.73;;;;;;;;;;6226079;28;20044;-73
2023/07/16 11:45:49;;;;;;;2.63;1.90;;;;;;;;;;6236983;28;20029;-73
2023/07/16 11:48:49;;;;;;;2.10;1.70;;;;;;;;;;6228264;28;20027;-71
2023/07/16 11:51:49;;;;;;;2.03;1.80;;;;;;;;;;6230733;28;20945;-69
2023/07/16 11:54:50;;;;;;;1.70;1.60;;;;;;;;;;6229129;28;20101;-70
2023/07/16 11:57:51;;;;;;;1.90;1.67;;;;;;;;;;6231624;28;20025;-71
2023/07/16 12:00:51;;;;;;;2.92;1.80;;;;;;;;;;6229639;28;20362;-70
2023/07/16 12:03:51;;;;;;;1.60;1.50;;;;;;;;;;6229843;28;20032;-70
2023/07/16 12:06:52;;;;;;;1.70;1.60;;;;;;;;;;6227181;28;20025;-71
2023/07/16 12:09:52;;;;;;;1.60;1.50;;;;;;;;;;6235485;28;20013;-71
2023/07/16 12:12:52;;;;;;;2.27;1.80;;;;;;;;;;6244481;28;20379;-73
2023/07/16 12:15:52;;;;;;;1.92;1.83;;;;;;;;;;5889355;28;9999890;-72
2023/07/16 12:18:53;;;;;;;1.77;1.67;;;;;;;;;;6228354;28;20257;-72
2023/07/16 12:21:53;;;;;;;1.80;1.70;;;;;;;;;;6219815;28;20073;-71
2023/07/16 12:24:53;;;;;;;1.90;1.80;;;;;;;;;;6185877;28;1246015;-71
2023/07/16 12:27:54;;;;;;;1.80;1.70;;;;;;;;;;6230070;28;20478;-71
2023/07/16 12:30:54;;;;;;;2.00;1.90;;;;;;;;;;6231053;28;20550;-71
2023/07/16 12:33:54;;;;;;;2.50;2.30;;;;;;;;;;6230308;28;20478;-72
2023/07/16 12:36:55;;;;;;;2.83;2.63;;;;;;;;;;6230621;28;20029;-71
2023/07/16 12:39:55;;;;;;;40.53;37.25;;;;;;;;;;6232112;28;20079;-72
2023/07/16 12:42:56;;;;;;;18.00;16.70;;;;;;;;;;6239356;28;20475;-70
2023/07/16 12:45:56;;;;;;;7.50;6.93;;;;;;;;;;6246074;28;20033;-71
2023/07/16 12:48:57;;;;;;;4.60;4.30;;;;;;;;;;6234508;28;20033;-71
2023/07/16 12:51:57;;;;;;;3.00;2.80;;;;;;;;;;6226346;28;20029;-71
2023/07/16 12:54:57;;;;;;;3.03;2.83;;;;;;;;;;6241722;28;20021;-73
2023/07/16 12:57:57;;;;;;;3.23;2.20;;;;;;;;;;6236013;28;20363;-72
2023/07/16 13:00:57;;;;;;;2.00;1.90;;;;;;;;;;6233810;28;20390;-72
2023/07/16 13:03:58;;;;;;;2.50;2.40;;;;;;;;;;6232611;28;20028;-70
2023/07/16 13:06:58;;;;;;;2.90;2.80;;;;;;;;;;6226549;28;20025;-71
2023/07/16 13:09:58;;;;;;;2.20;2.10;;;;;;;;;;6232208;28;20068;-72
2023/07/16 13:12:59;;;;;;;2.50;2.40;;;;;;;;;;6227839;28;20113;-70
2023/07/16 13:15:59;;;;;;;2.50;2.40;;;;;;;;;;6241207;28;20359;-71
2023/07/16 13:18:59;;;;;;;2.43;2.33;;;;;;;;;;6228522;28;20022;-69
2023/07/16 13:21:59;;;;;;;2.53;2.43;;;;;;;;;;6227786;28;20040;-71
2023/07/16 13:24:59;;;;;;;3.37;3.17;;;;;;;;;;6227314;28;20517;-71
2023/07/16 13:28:00;;;;;;;3.50;3.20;;;;;;;;;;6222485;28;20473;-71
2023/07/16 13:31:00;;;;;;;2.90;2.80;;;;;;;;;;6233303;28;20029;-72
2023/07/16 13:34:00;;;;;;;3.40;3.20;;;;;;;;;;6232072;28;20034;-73
2023/07/16 13:37:01;;;;;;;3.37;3.17;;;;;;;;;;6231933;28;20030;-72
2023/07/16 13:40:01;;;;;;;3.20;3.10;;;;;;;;;;6231823;28;20036;-72
2023/07/16 13:43:01;;;;;;;3.47;3.20;;;;;;;;;;6231088;28;20017;-73
2023/07/16 13:46:01;;;;;;;3.07;2.97;;;;;;;;;;6227333;28;20808;-72
2023/07/16 13:49:02;;;;;;;3.40;3.27;;;;;;;;;;6229567;28;20036;-71
2023/07/16 13:52:02;;;;;;;3.72;3.53;;;;;;;;;;6230014;28;20033;-72
2023/07/16 13:55:04;;;;;;;3.10;3.00;;;;;;;;;;6224346;28;20028;-72
2023/07/16 13:58:04;;;;;;;3.15;3.05;;;;;;;;;;6224269;28;20166;-71
2023/07/16 14:01:04;;;;;;;4.13;3.93;;;;;;;;;;6227249;28;20029;-72
2023/07/16 14:04:04;;;;;;;4.07;3.70;;;;;;;;;;6233287;28;20025;-71
2023/07/16 14:07:05;;;;;;;4.00;3.80;;;;;;;;;;6229374;28;20017;-72
2023/07/16 14:10:05;;;;;;;4.75;4.55;;;;;;;;;;5893300;28;10000048;-73
2023/07/16 14:13:05;;;;;;;4.72;4.53;;;;;;;;;;5533648;28;10000746;-72
2023/07/16 14:16:06;;;;;;;4.77;4.47;;;;;;;;;;6228856;28;20121;-73
2023/07/16 14:19:06;;;;;;;4.37;4.17;;;;;;;;;;6229848;28;20255;-72
2023/07/16 14:22:06;;;;;;;4.03;3.83;;;;;;;;;;6232341;28;20022;-72
2023/07/16 14:25:08;;;;;;;4.10;3.90;;;;;;;;;;6237413;28;20108;-72
2023/07/16 14:28:09;;;;;;;3.97;3.78;;;;;;;;;;6237428;28;20021;-72
2023/07/16 14:31:10;;;;;;;4.07;3.88;;;;;;;;;;6238990;28;20064;-70
2023/07/16 14:34:10;;;;;;;4.13;3.92;;;;;;;;;;6235337;28;20116;-71
2023/07/16 14:37:12;;;;;;;4.70;4.50;;;;;;;;;;6233156;28;20102;-72
2023/07/16 14:40:12;;;;;;;4.38;4.18;;;;;;;;;;6228415;28;20036;-72
2023/07/16 14:43:13;;;;;;;3.57;3.47;;;;;;;;;;6227716;28;20482;-71
2023/07/16 14:46:15;;;;;;;4.40;4.10;;;;;;;;;;6236913;28;20497;-71
2023/07/16 14:49:15;;;;;;;4.60;4.40;;;;;;;;;;6230814;28;20239;-72
2023/07/16 14:52:16;;;;;;;4.53;4.33;;;;;;;;;;6238341;28;20105;-71
2023/07/16 14:55:16;;;;;;;4.63;4.43;;;;;;;;;;6232196;28;20020;-72
2023/07/16 14:58:20;;;;;;;4.30;4.10;;;;;;;;;;6230463;28;20056;-72
2023/07/16 15:01:20;;;;;;;5.22;5.03;;;;;;;;;;6226854;28;20022;-72
2023/07/16 15:04:21;;;;;;;5.20;5.00;;;;;;;;;;6234949;28;20347;-71
2023/07/16 15:07:21;;;;;;;5.03;4.83;;;;;;;;;;6233989;28;20048;-72
2023/07/16 15:10:21;;;;;;;5.33;5.13;;;;;;;;;;6232533;28;20093;-69
2023/07/16 15:13:22;;;;;;;5.57;5.37;;;;;;;;;;6228926;28;20021;-72
2023/07/16 15:16:22;;;;;;;6.45;6.15;;;;;;;;;;6237789;28;20052;-71
2023/07/16 15:19:23;;;;;;;6.27;6.03;;;;;;;;;;6233847;28;20029;-71
2023/07/16 15:22:23;;;;;;;6.60;6.30;;;;;;;;;;6235503;28;20013;-70
2023/07/16 15:25:23;;;;;;;7.70;7.40;;;;;;;;;;6236689;28;20463;-72
2023/07/16 15:28:24;;;;;;;7.03;6.73;;;;;;;;;;6245388;28;20017;-71
2023/07/16 15:31:27;;;;;;;5.60;5.40;;;;;;;;;;6236762;28;20060;-70
2023/07/16 15:34:28;;;;;;;4.65;4.45;;;;;;;;;;6235188;28;20060;-71
2023/07/16 15:37:28;;;;;;;4.20;4.00;;;;;;;;;;6232786;28;20030;-72
2023/07/16 15:40:31;;;;;;;3.00;2.80;;;;;;;;;;6235859;28;20322;-72
2023/07/16 15:43:31;;;;;;;3.17;2.10;;;;;;;;;;6233013;28;20033;-72
2023/07/16 15:46:32;;;;;;;1.67;1.57;;;;;;;;;;6228056;28;20144;-73
2023/07/16 15:49:32;;;;;;;1.50;1.30;;;;;;;;;;6230387;28;20044;-73
2023/07/16 15:52:32;;;;;;;1.83;1.40;;;;;;;;;;6239545;28;20029;-73
2023/07/16 15:55:33;;;;;;;1.48;1.25;;;;;;;;;;6242007;28;20041;-72
2023/07/16 15:58:33;;;;;;;1.00;1.00;;;;;;;;;;6237375;28;20034;-74
2023/07/16 16:01:33;;;;;;;1.43;1.10;;;;;;;;;;6241436;28;20028;-72
2023/07/16 16:04:33;;;;;;;1.33;0.93;;;;;;;;;;6240302;28;20086;-74
2023/07/16 16:07:34;;;;;;;2.83;1.10;;;;;;;;;;6239427;28;20017;-73
2023/07/16 16:10:34;;;;;;;1.37;1.27;;;;;;;;;;6238678;28;20044;-71
2023/07/16 16:13:34;;;;;;;1.17;1.08;;;;;;;;;;5886143;28;10000177;-72
2023/07/16 16:16:35;;;;;;;1.77;0.90;;;;;;;;;;6238367;28;20018;-72
2023/07/16 16:19:35;;;;;;;1.33;1.23;;;;;;;;;;6234592;28;20291;-71
2023/07/16 16:22:35;;;;;;;1.53;0.97;;;;;;;;;;6238225;28;20044;-72
2023/07/16 16:25:35;;;;;;;1.07;0.90;;;;;;;;;;6237272;28;20288;-73
2023/07/16 16:28:36;;;;;;;1.00;1.00;;;;;;;;;;6231833;28;20097;-72
2023/07/16 16:31:36;;;;;;;0.90;0.90;;;;;;;;;;6238426;28;20105;-72
2023/07/16 16:34:36;;;;;;;1.00;1.00;;;;;;;;;;6229602;28;20030;-72
2023/07/16 16:37:37;;;;;;;1.23;1.10;;;;;;;;;;6232350;28;20025;-71
2023/07/16 16:40:41;;;;;;;1.13;1.03;;;;;;;;;;6233484;28;20516;-71
2023/07/16 16:43:41;;;;;;;1.92;1.10;;;;;;;;;;6235134;28;20021;-68
2023/07/16 16:46:42;;;;;;;0.97;0.97;;;;;;;;;;6231261;28;20024;-72
2023/07/16 16:49:43;;;;;;;1.83;1.20;;;;;;;;;;6231666;28;20021;-73
2023/07/16 16:52:43;;;;;;;1.20;1.10;;;;;;;;;;6229137;28;20033;-71
2023/07/16 16:55:43;;;;;;;1.33;1.23;;;;;;;;;;6233651;28;20033;-73
2023/07/16 16:58:43;;;;;;;1.17;1.07;;;;;;;;;;6233152;28;20437;-71
2023/07/16 17:01:44;;;;;;;1.00;1.00;;;;;;;;;;6229399;28;20029;-71
2023/07/16 17:04:44;;;;;;;1.20;1.10;;;;;;;;;;6233781;28;20018;-70
2023/07/16 17:07:44;;;;;;;1.10;1.00;;;;;;;;;;6229043;28;20763;-70
2023/07/16 17:10:44;;;;;;;1.10;1.00;;;;;;;;;;6227219;28;20083;-71
2023/07/16 17:13:45;;;;;;;1.20;1.10;;;;;;;;;;6226582;28;20106;-71
2023/07/16 17:16:45;;;;;;;1.17;0.90;;;;;;;;;;6231333;28;20836;-70
2023/07/16 17:19:46;;;;;;;0.90;0.90;;;;;;;;;;6229287;28;20284;-70
2023/07/16 17:22:46;;;;;;;1.10;1.00;;;;;;;;;;6227350;28;20102;-69
2023/07/16 17:25:46;;;;;;;1.33;1.10;;;;;;;;;;6239749;28;20030;-70
2023/07/16 17:28:48;;;;;;;2.33;1.17;;;;;;;;;;6229586;28;20033;-69
2023/07/16 17:31:48;;;;;;;1.95;1.25;;;;;;;;;;6241089;28;20345;-69
2023/07/16 17:34:48;;;;;;;1.13;1.03;;;;;;;;;;6236774;28;20025;-70
2023/07/16 17:37:48;;;;;;;1.30;1.17;;;;;;;;;;6234677;28;20489;-70
2023/07/16 17:40:49;;;;;;;3.67;1.40;;;;;;;;;;6237687;28;20029;-69
2023/07/16 17:43:49;;;;;;;2.13;1.43;;;;;;;;;;6241068;28;20070;-70
2023/07/16 17:46:49;;;;;;;1.97;1.13;;;;;;;;;;6236347;28;20083;-70
2023/07/16 17:49:49;;;;;;;1.03;0.90;;;;;;;;;;6236541;28;20108;-70
2023/07/16 17:52:50;;;;;;;1.27;1.17;;;;;;;;;;6242512;28;20413;-68
2023/07/16 17:55:52;;;;;;;2.00;1.20;;;;;;;;;;6234525;28;20135;-70
2023/07/16 17:58:52;;;;;;;2.22;1.40;;;;;;;;;;6242051;28;20027;-69
2023/07/16 18:01:53;;;;;;;1.17;1.15;;;;;;;;;;6232118;28;20025;-69